createdAt,value
2022-07-29T00:00:56.713Z,22.42
2022-07-29T00:03:23.354Z,22.25
2022-07-29T00:09:43.023Z,22.09
2022-07-29T00:12:26.471Z,22.06
2022-07-29T00:14:54.804Z,21.99
2022-07-29T00:17:21.296Z,22.00
2022-07-29T00:19:47.689Z,22.00
2022-07-29T00:22:14.038Z,21.96
2022-07-29T00:24:40.496Z,21.96
2022-07-29T00:27:06.947Z,22.07
2022-07-29T00:29:34.658Z,21.99
2022-07-29T00:32:01.911Z,21.88
2022-07-29T00:34:46.957Z,21.79
2022-07-29T00:37:13.402Z,21.80
2022-07-29T00:39:39.769Z,21.84
2022-07-29T00:42:06.529Z,21.91
2022-07-29T00:44:37.738Z,21.93
2022-07-29T00:47:04.225Z,21.97
2022-07-29T00:49:30.696Z,21.94
2022-07-29T00:51:57.829Z,21.92
2022-07-29T00:54:24.408Z,21.98
2022-07-29T00:56:50.810Z,21.93
2022-07-29T00:59:17.179Z,21.95
2022-07-29T01:01:43.587Z,21.99
2022-07-29T01:04:10.084Z,21.95
2022-07-29T01:06:36.912Z,21.95
2022-07-29T01:09:04.168Z,21.95
2022-07-29T01:11:30.577Z,21.92
2022-07-29T01:13:57.739Z,21.89
2022-07-29T01:16:33.206Z,21.89
2022-07-29T01:19:13.843Z,21.87
2022-07-29T01:21:53.591Z,21.87
2022-07-29T01:24:44.317Z,21.89
2022-07-29T01:27:29.265Z,21.86
2022-07-29T01:29:59.693Z,21.88
2022-07-29T01:32:32.313Z,21.86
2022-07-29T01:35:16.740Z,21.90
2022-07-29T01:38:06.360Z,21.85
2022-07-29T01:40:48.680Z,21.88
2022-07-29T01:43:21.901Z,21.74
2022-07-29T01:45:57.185Z,21.71
2022-07-29T01:48:40.283Z,21.64
2022-07-29T01:51:13.449Z,21.65
2022-07-29T01:53:45.517Z,21.74
2022-07-29T01:56:13.181Z,21.62
2022-07-29T01:58:42.347Z,21.58
2022-07-29T02:01:10.828Z,21.60
2022-07-29T02:03:39.159Z,21.59
2022-07-29T02:06:08.027Z,21.60
2022-07-29T02:08:36.958Z,21.61
2022-07-29T02:11:05.775Z,21.44
2022-07-29T02:13:35.184Z,21.45
2022-07-29T02:16:05.946Z,21.40
2022-07-29T02:18:33.372Z,21.40
2022-07-29T02:21:01.884Z,21.36
2022-07-29T02:23:28.621Z,21.34
2022-07-29T02:25:58.106Z,21.33
2022-07-29T02:28:28.562Z,21.24
2022-07-29T02:30:58.839Z,21.29
2022-07-29T02:33:26.548Z,21.25
2022-07-29T02:35:53.573Z,21.27
2022-07-29T02:38:40.856Z,21.25
2022-07-29T02:41:12.430Z,21.14
2022-07-29T02:43:41.405Z,21.10
2022-07-29T02:46:29.044Z,21.16
2022-07-29T02:49:16.432Z,21.15
2022-07-29T02:51:46.560Z,21.03
2022-07-29T02:54:22.019Z,20.95
2022-07-29T02:56:49.924Z,20.83
2022-07-29T02:59:22.922Z,20.79
2022-07-29T03:01:50.939Z,20.76
2022-07-29T03:04:20.700Z,20.72
2022-07-29T03:06:49.383Z,20.70
2022-07-29T03:09:15.922Z,20.69
2022-07-29T03:11:49.675Z,20.61
2022-07-29T03:14:21.565Z,20.48
2022-07-29T03:16:49.064Z,20.45
2022-07-29T03:19:16.308Z,20.41
2022-07-29T03:21:42.649Z,20.33
2022-07-29T03:24:10.742Z,20.34
2022-07-29T03:26:37.656Z,20.24
2022-07-29T03:29:04.044Z,20.28
2022-07-29T03:31:30.450Z,20.26
2022-07-29T03:33:56.929Z,20.22
2022-07-29T03:36:23.396Z,20.19
2022-07-29T03:38:50.287Z,20.07
2022-07-29T03:41:18.310Z,20.00
2022-07-29T03:43:51.128Z,20.00
2022-07-29T03:46:18.795Z,20.06
2022-07-29T03:48:51.571Z,19.96
2022-07-29T03:51:18.172Z,19.99
2022-07-29T03:53:45.422Z,19.98
2022-07-29T03:56:17.749Z,19.89
2022-07-29T03:58:45.268Z,19.93
2022-07-29T04:01:12.686Z,19.88
2022-07-29T04:03:40.118Z,19.87
2022-07-29T04:06:07.864Z,19.86
2022-07-29T04:08:35.574Z,19.79
2022-07-29T04:11:03.429Z,19.80
2022-07-29T04:13:29.953Z,19.67
2022-07-29T04:15:56.540Z,19.67
2022-07-29T04:18:23.083Z,19.60
2022-07-29T04:20:49.820Z,19.52
2022-07-29T04:23:16.361Z,19.54
2022-07-29T04:25:43.620Z,19.47
2022-07-29T04:28:11.181Z,19.44
2022-07-29T04:30:38.553Z,19.37
2022-07-29T04:33:07.947Z,19.44
2022-07-29T04:35:38.181Z,19.41
2022-07-29T04:38:07.147Z,19.42
2022-07-29T04:40:34.242Z,19.35
2022-07-29T04:43:01.914Z,19.42
2022-07-29T04:45:32.205Z,19.34
2022-07-29T04:47:58.564Z,19.37
2022-07-29T04:50:25.439Z,19.31
2022-07-29T04:52:51.868Z,19.26
2022-07-29T04:55:18.289Z,19.33
2022-07-29T04:57:44.803Z,19.20
2022-07-29T05:00:11.876Z,19.20
2022-07-29T05:02:38.311Z,19.22
2022-07-29T05:05:05.089Z,19.18
2022-07-29T05:07:31.465Z,19.12
2022-07-29T05:09:57.956Z,19.20
2022-07-29T05:12:25.694Z,19.32
2022-07-29T05:14:52.592Z,19.31
2022-07-29T05:17:19.064Z,19.38
2022-07-29T05:19:45.487Z,19.44
2022-07-29T05:22:11.904Z,19.54
2022-07-29T05:24:38.445Z,19.54
2022-07-29T05:27:05.311Z,19.58
2022-07-29T05:29:42.481Z,19.68
2022-07-29T05:32:13.749Z,19.74
2022-07-29T05:34:50.201Z,19.85
2022-07-29T05:37:18.568Z,19.97
2022-07-29T05:39:46.973Z,19.96
2022-07-29T05:42:14.688Z,20.09
2022-07-29T05:44:41.139Z,20.18
2022-07-29T05:47:07.481Z,20.33
2022-07-29T05:49:34.063Z,20.39
2022-07-29T05:52:00.464Z,20.38
2022-07-29T05:54:26.949Z,20.44
2022-07-29T05:56:53.295Z,20.71
2022-07-29T05:59:19.669Z,20.70
2022-07-29T06:01:46.050Z,20.78
2022-07-29T06:04:12.706Z,21.00
2022-07-29T06:06:39.305Z,20.99
2022-07-29T06:09:12.422Z,21.13
2022-07-29T06:11:39.029Z,21.25
2022-07-29T06:14:05.399Z,21.39
2022-07-29T06:16:32.435Z,21.31
2022-07-29T06:18:58.956Z,21.54
2022-07-29T06:21:25.299Z,21.62
2022-07-29T06:23:51.766Z,21.65
2022-07-29T06:26:18.115Z,21.78
2022-07-29T06:28:44.501Z,21.82
2022-07-29T06:31:11.010Z,21.86
2022-07-29T06:33:37.585Z,21.89
2022-07-29T06:36:07.319Z,22.02
2022-07-29T06:38:44.853Z,22.22
2022-07-29T06:41:16.958Z,22.41
2022-07-29T06:43:50.682Z,22.44
2022-07-29T06:46:20.382Z,22.53
2022-07-29T06:48:48.384Z,22.56
2022-07-29T06:51:15.608Z,22.72
2022-07-29T06:53:59.375Z,22.74
2022-07-29T06:56:29.071Z,22.86
2022-07-29T06:58:55.465Z,22.77
2022-07-29T07:01:22.002Z,23.01
2022-07-29T07:03:49.116Z,23.17
2022-07-29T07:06:16.570Z,23.40
2022-07-29T07:08:43.059Z,23.50
2022-07-29T07:11:09.611Z,23.42
2022-07-29T07:13:36.723Z,23.49
2022-07-29T07:16:04.057Z,23.62
2022-07-29T07:18:30.702Z,23.53
2022-07-29T07:20:57.873Z,23.65
2022-07-29T07:23:24.589Z,23.83
2022-07-29T07:25:51.025Z,23.88
2022-07-29T07:28:17.510Z,23.96
2022-07-29T07:30:44.442Z,24.19
2022-07-29T07:33:10.777Z,24.34
2022-07-29T07:35:37.131Z,24.38
2022-07-29T07:38:03.548Z,24.59
2022-07-29T07:40:30.081Z,24.73
2022-07-29T07:42:56.615Z,24.68
2022-07-29T07:45:23.090Z,24.99
2022-07-29T07:47:49.477Z,25.03
2022-07-29T07:50:19.356Z,25.15
2022-07-29T07:52:54.448Z,25.13
2022-07-29T07:55:20.862Z,25.40
2022-07-29T07:57:47.986Z,25.50
2022-07-29T08:00:15.692Z,25.68
2022-07-29T08:02:43.778Z,25.67
2022-07-29T08:05:12.622Z,25.77
2022-07-29T08:07:39.393Z,25.88
2022-07-29T08:10:06.564Z,25.94
2022-07-29T08:12:33.020Z,25.86
2022-07-29T08:14:59.569Z,25.84
2022-07-29T08:17:26.192Z,26.04
2022-07-29T08:19:52.551Z,26.32
2022-07-29T08:22:18.986Z,26.32
2022-07-29T08:24:47.111Z,26.61
2022-07-29T08:27:40.700Z,26.93
2022-07-29T08:30:01.084Z,26.95
2022-07-29T08:32:52.189Z,27.10
2022-07-29T08:35:15.712Z,27.09
2022-07-29T08:37:42.793Z,26.67
2022-07-29T08:40:09.597Z,26.59
2022-07-29T08:42:36.476Z,26.69
2022-07-29T08:45:04.919Z,26.73
2022-07-29T08:47:31.627Z,26.70
2022-07-29T08:49:57.998Z,27.04
2022-07-29T08:52:26.616Z,27.19
2022-07-29T08:54:54.258Z,26.55
2022-07-29T08:57:23.999Z,26.70
2022-07-29T08:59:54.563Z,26.89
2022-07-29T09:02:22.588Z,27.27
2022-07-29T09:04:50.321Z,26.81
2022-07-29T09:07:19.013Z,26.83
2022-07-29T09:09:45.931Z,27.04
2022-07-29T09:12:12.924Z,27.48
2022-07-29T09:14:55.442Z,27.80
2022-07-29T09:17:40.728Z,28.00
2022-07-29T09:20:17.288Z,28.07
2022-07-29T09:22:44.277Z,28.31
2022-07-29T09:25:12.610Z,28.30
2022-07-29T09:27:39.919Z,28.77
2022-07-29T09:30:11.316Z,28.36
2022-07-29T09:32:59.123Z,28.61
2022-07-29T09:35:26.842Z,28.54
2022-07-29T09:37:53.976Z,28.69
2022-07-29T09:40:22.861Z,28.67
2022-07-29T09:42:49.605Z,28.81
2022-07-29T09:45:32.052Z,28.71
2022-07-29T09:48:01.368Z,28.99
2022-07-29T09:50:44.915Z,28.92
2022-07-29T09:53:11.963Z,28.72
2022-07-29T09:55:49.302Z,29.05
2022-07-29T09:58:19.779Z,29.30
2022-07-29T10:00:48.019Z,29.64
2022-07-29T10:03:16.559Z,29.71
2022-07-29T10:05:44.216Z,29.95
2022-07-29T10:08:13.140Z,29.86
2022-07-29T10:10:42.376Z,29.76
2022-07-29T10:13:16.175Z,30.10
2022-07-29T10:15:45.817Z,30.09
2022-07-29T10:18:14.635Z,30.11
2022-07-29T10:20:41.443Z,28.96
2022-07-29T10:23:07.900Z,29.56
2022-07-29T10:25:34.425Z,29.58
2022-07-29T10:28:00.880Z,29.79
2022-07-29T10:30:27.663Z,29.21
2022-07-29T10:33:51.175Z,29.89
2022-07-29T10:36:43.221Z,29.18
2022-07-29T10:39:41.784Z,29.39
2022-07-29T10:42:34.202Z,29.92
2022-07-29T10:45:02.588Z,30.08
2022-07-29T10:47:31.543Z,29.99
2022-07-29T10:50:03.694Z,30.52
2022-07-29T10:52:53.574Z,31.03
2022-07-29T10:55:35.732Z,30.95
2022-07-29T10:58:34.997Z,31.03
2022-07-29T11:01:37.120Z,31.22
2022-07-29T11:04:06.106Z,30.99
2022-07-29T11:06:59.348Z,31.25
2022-07-29T11:09:37.581Z,30.61
2022-07-29T11:12:25.408Z,30.37
2022-07-29T11:14:52.984Z,30.13
2022-07-29T11:17:19.669Z,30.81
2022-07-29T11:19:52.035Z,31.13
2022-07-29T11:22:35.947Z,31.40
2022-07-29T11:25:16.821Z,30.89
2022-07-29T11:27:45.818Z,31.17
2022-07-29T11:30:13.084Z,31.23
2022-07-29T11:32:48.441Z,31.51
2022-07-29T11:35:17.601Z,30.90
2022-07-29T11:40:32.593Z,31.50
2022-07-29T11:42:59.209Z,31.28
2022-07-29T11:45:43.362Z,31.21
2022-07-29T11:48:29.387Z,31.71
2022-07-29T11:50:58.529Z,31.50
2022-07-29T11:53:25.684Z,31.31
2022-07-29T11:55:58.282Z,31.16
2022-07-29T11:58:26.015Z,30.55
2022-07-29T12:00:53.047Z,30.89
2022-07-29T12:03:33.287Z,31.41
2022-07-29T12:06:14.268Z,31.53
2022-07-29T12:08:45.791Z,31.53
2022-07-29T12:11:20.598Z,31.46
2022-07-29T12:13:49.331Z,31.84
2022-07-29T12:16:16.104Z,32.07
2022-07-29T12:19:00.489Z,31.75
2022-07-29T12:21:29.214Z,31.78
2022-07-29T12:24:01.798Z,31.58
2022-07-29T12:26:32.341Z,32.13
2022-07-29T12:29:02.440Z,31.38
2022-07-29T12:31:43.140Z,31.92
2022-07-29T12:34:13.149Z,32.19
2022-07-29T12:36:40.163Z,31.69
2022-07-29T12:39:06.776Z,31.56
2022-07-29T12:41:33.294Z,31.79
2022-07-29T12:43:59.702Z,31.81
2022-07-29T12:46:26.194Z,32.25
2022-07-29T12:48:58.175Z,32.61
2022-07-29T12:51:32.072Z,32.72
2022-07-29T12:54:11.294Z,32.55
2022-07-29T12:56:43.559Z,31.83
2022-07-29T12:59:20.287Z,32.53
2022-07-29T13:01:50.131Z,32.85
2022-07-29T13:04:27.664Z,32.98
2022-07-29T13:07:02.330Z,33.00
2022-07-29T13:09:42.513Z,32.88
2022-07-29T13:12:11.005Z,32.74
2022-07-29T13:14:46.502Z,31.72
2022-07-29T13:17:24.264Z,32.06
2022-07-29T13:19:52.762Z,31.61
2022-07-29T13:22:25.404Z,31.38
2022-07-29T13:25:00.155Z,31.53
2022-07-29T13:27:28.763Z,31.48
2022-07-29T13:30:00.326Z,31.80
2022-07-29T13:32:29.064Z,31.87
2022-07-29T13:35:01.124Z,31.84
2022-07-29T13:37:31.577Z,31.83
2022-07-29T13:39:58.446Z,32.17
2022-07-29T13:42:25.851Z,31.55
2022-07-29T13:44:52.911Z,31.64
2022-07-29T13:47:21.499Z,31.66
2022-07-29T13:49:48.717Z,31.75
2022-07-29T13:52:16.652Z,31.51
2022-07-29T13:54:44.307Z,31.28
2022-07-29T13:57:11.935Z,31.61
2022-07-29T13:59:40.092Z,31.23
2022-07-29T14:02:06.799Z,31.20
2022-07-29T14:04:34.332Z,30.67
2022-07-29T14:07:03.642Z,30.58
2022-07-29T14:09:30.767Z,30.64
2022-07-29T14:12:07.897Z,30.87
2022-07-29T14:14:34.287Z,30.86
2022-07-29T14:17:00.700Z,30.91
2022-07-29T14:19:27.096Z,31.14
2022-07-29T14:21:53.479Z,31.47
2022-07-29T14:24:21.431Z,31.26
2022-07-29T14:26:49.546Z,31.01
2022-07-29T14:29:16.095Z,30.78
2022-07-29T14:31:43.953Z,30.59
2022-07-29T14:34:10.475Z,30.18
2022-07-29T14:36:36.865Z,29.63
2022-07-29T14:39:03.479Z,29.17
2022-07-29T14:41:29.853Z,28.84
2022-07-29T14:43:56.252Z,28.74
2022-07-29T14:46:22.735Z,28.70
2022-07-29T14:48:49.213Z,28.54
2022-07-29T14:51:15.701Z,28.63
2022-07-29T14:53:42.117Z,28.64
2022-07-29T14:56:34.202Z,28.65
2022-07-29T14:58:54.951Z,28.61
2022-07-29T15:01:21.335Z,28.63
2022-07-29T15:03:47.738Z,28.60
2022-07-29T15:06:14.189Z,28.46
2022-07-29T15:08:40.622Z,28.44
2022-07-29T15:11:07.039Z,28.51
2022-07-29T15:13:34.349Z,28.42
2022-07-29T15:16:00.888Z,28.53
2022-07-29T15:18:27.296Z,28.61
2022-07-29T15:20:53.742Z,28.75
2022-07-29T15:23:20.674Z,28.80
2022-07-29T15:25:47.315Z,28.77
2022-07-29T15:28:13.697Z,28.60
2022-07-29T15:30:43.017Z,28.72
2022-07-29T15:33:10.351Z,28.73
2022-07-29T15:35:40.520Z,28.82
2022-07-29T15:38:07.497Z,28.67
2022-07-29T15:40:34.158Z,28.36
2022-07-29T15:43:06.461Z,27.93
2022-07-29T15:45:40.170Z,27.73
2022-07-29T15:48:08.337Z,27.42
2022-07-29T15:50:35.299Z,27.23
2022-07-29T15:53:02.108Z,26.95
2022-07-29T15:55:28.520Z,27.04
2022-07-29T15:57:58.571Z,27.06
2022-07-29T16:00:27.059Z,26.96
2022-07-29T16:02:53.433Z,26.72
2022-07-29T16:05:19.848Z,26.53
2022-07-29T16:07:46.249Z,26.53
2022-07-29T16:10:12.731Z,26.40
2022-07-29T16:12:39.182Z,26.29
2022-07-29T16:15:09.969Z,26.13
2022-07-29T16:17:37.993Z,26.00
2022-07-29T16:20:05.774Z,25.90
2022-07-29T16:22:32.160Z,25.91
2022-07-29T16:24:58.604Z,25.98
2022-07-29T16:27:35.707Z,26.06
2022-07-29T16:30:07.853Z,26.21
2022-07-29T16:32:34.502Z,26.20
2022-07-29T16:35:02.662Z,26.19
2022-07-29T16:37:33.366Z,26.24
2022-07-29T16:39:59.819Z,26.20
2022-07-29T16:42:45.460Z,26.28
2022-07-29T16:45:12.433Z,26.30
2022-07-29T16:47:38.862Z,26.35
2022-07-29T16:50:06.172Z,26.42
2022-07-29T16:52:32.582Z,26.55
2022-07-29T16:54:59.021Z,26.64
2022-07-29T16:57:25.407Z,26.71
2022-07-29T16:59:52.022Z,26.70
2022-07-29T17:02:18.993Z,26.66
2022-07-29T17:04:45.475Z,26.70
2022-07-29T17:07:11.976Z,26.55
2022-07-29T17:09:38.426Z,26.49
2022-07-29T17:12:05.243Z,26.49
2022-07-29T17:14:31.973Z,26.51
2022-07-29T17:17:02.079Z,26.47
2022-07-29T17:19:35.261Z,26.37
2022-07-29T17:22:13.010Z,26.81
2022-07-29T17:24:42.665Z,26.75
2022-07-29T17:27:10.135Z,26.58
2022-07-29T17:29:36.665Z,26.37
2022-07-29T17:32:03.505Z,26.37
2022-07-29T17:34:29.947Z,26.34
2022-07-29T17:36:56.949Z,26.25
2022-07-29T17:39:23.933Z,25.40
2022-07-29T17:41:50.405Z,24.40
2022-07-29T17:44:16.862Z,23.46
2022-07-29T17:46:43.280Z,22.58
2022-07-29T17:49:09.728Z,21.96
2022-07-29T17:51:36.207Z,21.47
2022-07-29T17:54:02.767Z,21.28
2022-07-29T17:56:29.140Z,21.31
2022-07-29T17:58:55.877Z,21.46
2022-07-29T18:01:23.439Z,21.36
2022-07-29T18:03:50.020Z,21.20
2022-07-29T18:06:16.396Z,21.28
2022-07-29T18:08:43.064Z,21.30
2022-07-29T18:11:09.581Z,21.33
2022-07-29T18:13:41.579Z,21.27
2022-07-29T18:16:09.141Z,21.32
2022-07-29T18:18:35.651Z,21.33
2022-07-29T18:21:02.669Z,21.33
2022-07-29T18:23:29.047Z,21.34
2022-07-29T18:25:55.579Z,21.37
2022-07-29T18:28:22.322Z,21.13
2022-07-29T18:30:48.920Z,21.13
2022-07-29T18:33:21.273Z,21.12
2022-07-29T18:35:49.836Z,21.02
2022-07-29T18:38:16.842Z,20.92
2022-07-29T18:40:44.423Z,20.96
2022-07-29T18:43:11.418Z,20.81
2022-07-29T18:45:39.575Z,20.85
2022-07-29T18:48:08.343Z,20.86
2022-07-29T18:50:39.491Z,20.77
2022-07-29T18:53:06.033Z,20.76
2022-07-29T18:55:32.531Z,20.83
2022-07-29T18:57:58.968Z,20.71
2022-07-29T19:00:26.516Z,20.73
2022-07-29T19:02:53.514Z,20.74
2022-07-29T19:05:20.429Z,20.71
2022-07-29T19:07:46.800Z,20.65
2022-07-29T19:10:13.524Z,20.65
2022-07-29T19:12:40.001Z,20.50
2022-07-29T19:15:07.672Z,20.50
2022-07-29T19:17:34.101Z,20.44
2022-07-29T19:20:00.474Z,20.46
2022-07-29T19:22:26.867Z,20.50
2022-07-29T19:24:53.290Z,20.46
2022-07-29T19:27:19.923Z,20.37
2022-07-29T19:29:46.304Z,20.18
2022-07-29T19:32:13.567Z,20.14
2022-07-29T19:35:10.177Z,20.36
2022-07-29T19:37:37.225Z,20.27
2022-07-29T19:40:04.327Z,20.31
2022-07-29T19:42:30.734Z,20.12
2022-07-29T19:44:57.075Z,20.16
2022-07-29T19:47:23.500Z,20.18
2022-07-29T19:49:49.935Z,20.02
2022-07-29T19:52:16.384Z,19.98
2022-07-29T19:54:43.023Z,20.05
2022-07-29T19:57:09.650Z,19.89
2022-07-29T19:59:36.068Z,19.87
2022-07-29T20:02:02.645Z,19.86
2022-07-29T20:04:29.356Z,19.80
2022-07-29T20:07:01.070Z,19.68
2022-07-29T20:09:28.313Z,19.89
2022-07-29T20:11:54.785Z,19.79
2022-07-29T20:14:21.523Z,19.70
2022-07-29T20:16:48.049Z,19.95
2022-07-29T20:19:14.522Z,19.76
2022-07-29T20:21:40.948Z,19.70
2022-07-29T20:24:07.845Z,19.70
2022-07-29T20:26:34.260Z,19.71
2022-07-29T20:29:00.681Z,19.72
2022-07-29T20:31:27.502Z,19.70
2022-07-29T20:33:53.921Z,19.72
2022-07-29T20:36:20.328Z,19.69
2022-07-29T20:38:46.708Z,19.80
2022-07-29T20:41:14.199Z,19.76
2022-07-29T20:43:40.960Z,19.83
2022-07-29T20:46:07.422Z,19.83
2022-07-29T20:48:33.851Z,19.76
2022-07-29T20:51:00.301Z,19.71
2022-07-29T20:53:26.705Z,19.61
2022-07-29T20:55:53.136Z,19.37
2022-07-29T20:58:19.830Z,19.36
2022-07-29T21:00:46.417Z,19.51
2022-07-29T21:03:13.227Z,19.58
2022-07-29T21:05:42.337Z,19.62
2022-07-29T21:08:11.184Z,19.65
2022-07-29T21:10:37.548Z,19.60
2022-07-29T21:13:03.913Z,19.58
2022-07-29T21:15:30.540Z,19.59
2022-07-29T21:18:05.537Z,19.55
2022-07-29T21:20:32.018Z,19.42
2022-07-29T21:22:58.436Z,19.50
2022-07-29T21:25:26.733Z,19.52
2022-07-29T21:28:11.597Z,19.54
2022-07-29T21:30:37.997Z,19.52
2022-07-29T21:33:04.561Z,19.47
2022-07-29T21:36:06.323Z,19.46
2022-07-29T21:38:18.324Z,19.33
2022-07-29T21:40:50.042Z,19.42
2022-07-29T21:43:17.456Z,19.42
2022-07-29T21:45:47.358Z,19.32
2022-07-29T21:48:14.233Z,19.32
2022-07-29T21:50:40.609Z,19.32
2022-07-29T21:53:07.001Z,19.34
2022-07-29T21:55:33.539Z,19.33
2022-07-29T21:57:59.945Z,19.31
2022-07-29T22:00:26.698Z,19.32
2022-07-29T22:02:53.433Z,19.24
2022-07-29T22:05:20.267Z,19.11
2022-07-29T22:07:55.357Z,19.10
2022-07-29T22:10:24.109Z,19.12
2022-07-29T22:12:52.123Z,19.19
2022-07-29T22:15:18.714Z,19.04
2022-07-29T22:17:45.280Z,18.92
2022-07-29T22:20:12.005Z,19.03
2022-07-29T22:22:39.136Z,18.93
2022-07-29T22:25:06.968Z,18.78
2022-07-29T22:27:33.599Z,18.86
2022-07-29T22:30:00.207Z,18.91
2022-07-29T22:32:26.841Z,18.82
2022-07-29T22:34:53.205Z,18.77
2022-07-29T22:37:19.656Z,18.75
2022-07-29T22:39:46.105Z,18.77
2022-07-29T22:42:12.628Z,18.72
2022-07-29T22:44:38.985Z,18.70
2022-07-29T22:47:05.733Z,18.63
2022-07-29T22:49:32.412Z,18.61
2022-07-29T22:52:00.108Z,18.65
2022-07-29T22:54:26.900Z,18.64
2022-07-29T22:56:53.545Z,18.63
2022-07-29T22:59:19.894Z,18.64
2022-07-29T23:01:46.319Z,18.56
2022-07-29T23:04:12.780Z,18.47
2022-07-29T23:06:39.241Z,18.48
2022-07-29T23:09:06.186Z,18.50
2022-07-29T23:11:32.870Z,18.46
2022-07-29T23:13:59.229Z,18.47
2022-07-29T23:16:26.487Z,18.43
2022-07-29T23:18:53.324Z,18.42
2022-07-29T23:21:20.747Z,18.43
2022-07-29T23:23:48.424Z,18.46
2022-07-29T23:26:16.683Z,18.48
2022-07-29T23:28:46.264Z,18.48
2022-07-29T23:31:13.552Z,18.47
2022-07-29T23:33:40.993Z,18.44
2022-07-29T23:36:07.595Z,18.41
2022-07-29T23:38:33.978Z,18.41
2022-07-29T23:41:02.165Z,18.43
2022-07-29T23:43:28.759Z,18.42
2022-07-29T23:45:55.897Z,18.40
2022-07-29T23:48:24.675Z,18.37
2022-07-29T23:50:51.252Z,18.36
2022-07-29T23:53:17.699Z,18.33
2022-07-29T23:55:44.232Z,18.31
2022-07-29T23:58:10.791Z,18.33
